Hauptseite
METAR-TAF:

METAR-TAF

Flughäfen :

Flughafen N’Djamena

N’Djamena, Tschad

Breite: 12-08N, Länge: 015-02E, Höhe: 295 m

Beobachtung

Neuester Wetterbericht von vor 1 Stunde und 3 Minuten, um 00:00 UTC
Windstille
Temperatur 31°C
Luftfeuchtigkeit 22%
Luftdruck 1004 hPa
Sichtweite: 8000 m

METAR: FTTJ 030000Z 00000KT 8000 NSC 31/07 Q1004 NOSIG

Zeit: 02:03 (01:03 UTC)

Prognose

Neuester Wetterbericht von vor 2 Stunden und 3 Minuten, um 23:00 UTC
Gültige Prognose vom 03 um 00 UTC bis 04 um 06 UTC
Wind 4 kt aus unterschiedlichen Richtungen
Sichtweite: 5000 m
trockener Dunst
Zeitweise
vom 03 um 06 UTC bis 03 um 14 UTC
Wind 10 kt aus Nordost
Sichtweite: 8000 m

TAF: FTTJ 022300Z 0300/0406 VRB04KT 5000 HZ NSC TEMPO 0306/0314 04010KT 8000

Wetterbeobachtungen und Prognosen von mehr als 4000 Flughäfen (METAR und TAF Bericht).

Die verfügbaren Stationen werden durch gelbe und rote Markierungen auf der Karte dargestellt.

Führen Sie die Maus auf sie, um den Namen der Station zu sehen.

Darauf klicken, um die Beobachtung von Wetterbeobachtungen und Prognosen zu sehen.

Um die Karte zu ändern : klicken Sie auf den grünen Tasten mit einem schwarzen Kreuz Zum Vergrößern, auf den grünen Button mit einem Gedankenstrich zu verkleinern, oder auf die grünen Pfeile für benachbarte Karten.


METAR-TAF: